Time;durP1;ratioP1;P1;durP2;ratioP2;P2;SDS_P1;SDS_P2;PMS_P1;PMS_P2;Temp;Humidity;BMP_temperature;BMP_pressure;BME280_temperature;BME280_humidity;BME280_pressure;Samples;Min_cycle;Max_cycle;Signal;HPM_P1;HPM_P2
2022/09/02 00:00:35;;;;;;;2.80;2.60;;;22.40;56.30;;;;;;5014494;28;20602;-72
2022/09/02 00:03:04;;;;;;;2.58;2.38;;;22.40;56.30;;;;;;5015078;28;20247;-72
2022/09/02 00:05:31;;;;;;;2.80;2.60;;;22.40;56.20;;;;;;4998473;28;20213;-72
2022/09/02 00:07:59;;;;;;;2.95;2.75;;;22.40;56.30;;;;;;4997886;28;20197;-72
2022/09/02 00:10:26;;;;;;;2.92;2.72;;;22.40;56.30;;;;;;4997576;28;20284;-72
2022/09/02 00:12:53;;;;;;;2.70;2.50;;;22.40;56.30;;;;;;5014113;28;20200;-72
2022/09/02 00:15:20;;;;;;;2.80;2.60;;;22.30;56.20;;;;;;4997799;28;20232;-72
2022/09/02 00:17:47;;;;;;;2.80;2.60;;;22.40;56.30;;;;;;5015263;28;20205;-72
2022/09/02 00:20:16;;;;;;;2.88;2.67;;;22.30;56.90;;;;;;4997680;28;20208;-72
2022/09/02 00:22:43;;;;;;;2.58;2.38;;;22.30;56.30;;;;;;5014756;28;20197;-72
2022/09/02 00:25:10;;;;;;;2.40;2.20;;;22.30;56.30;;;;;;5014226;28;20575;-72
2022/09/02 00:27:37;;;;;;;2.72;2.53;;;22.30;56.30;;;;;;5014254;28;20205;-72
2022/09/02 00:30:06;;;;;;;2.90;2.60;;;22.30;56.40;;;;;;5014038;28;20224;-72
2022/09/02 00:32:32;;;;;;;2.40;2.20;;;22.30;56.30;;;;;;5014053;28;20227;-72
2022/09/02 00:35:00;;;;;;;2.70;2.50;;;22.30;56.30;;;;;;5015283;28;20204;-72
2022/09/02 00:37:29;;;;;;;2.65;2.45;;;22.30;56.30;;;;;;4999012;28;20200;-72
2022/09/02 00:39:57;;;;;;;2.60;2.40;;;22.30;56.40;;;;;;4998975;28;20224;-72
2022/09/02 00:42:24;;;;;;;2.72;2.50;;;22.30;56.30;;;;;;4999570;28;20239;-72
2022/09/02 00:44:51;;;;;;;2.50;2.30;;;22.20;56.30;;;;;;5016699;28;20215;-72
2022/09/02 00:47:18;;;;;;;2.88;2.67;;;22.20;56.30;;;;;;5000032;28;20228;-72
2022/09/02 00:49:48;;;;;;;2.47;2.28;;;22.20;56.30;;;;;;5019291;28;20185;-72
2022/09/02 00:52:18;;;;;;;2.38;2.28;;;22.20;56.30;;;;;;5000909;28;20224;-72
2022/09/02 00:54:48;;;;;;;2.70;2.50;;;22.20;56.30;;;;;;5000313;28;20197;-72
2022/09/02 00:57:18;;;;;;;2.55;2.35;;;22.20;56.30;;;;;;5016580;28;20291;-72
2022/09/02 00:59:49;;;;;;;2.60;2.40;;;22.20;56.30;;;;;;5015662;28;20224;-72
2022/09/02 01:02:16;;;;;;;2.42;2.22;;;22.20;56.30;;;;;;4997723;28;20224;-72
2022/09/02 01:04:45;;;;;;;2.40;2.20;;;22.20;56.30;;;;;;5015047;28;20208;-72
2022/09/02 01:07:13;;;;;;;2.40;2.30;;;22.10;56.20;;;;;;5013264;28;20251;-72
2022/09/02 01:09:40;;;;;;;2.65;2.38;;;22.20;56.30;;;;;;5013021;28;20722;-72
2022/09/02 01:12:11;;;;;;;2.63;2.42;;;22.10;56.20;;;;;;5014042;28;20337;-72
2022/09/02 01:14:38;;;;;;;2.55;2.35;;;22.10;56.20;;;;;;5014694;28;20192;-72
2022/09/02 01:17:06;;;;;;;2.53;2.33;;;22.10;56.20;;;;;;4996753;28;20582;-72
2022/09/02 01:19:37;;;;;;;2.20;2.10;;;22.10;56.20;;;;;;5013896;28;20630;-72
2022/09/02 01:22:14;;;;;;;2.28;2.15;;;22.10;56.20;;;;;;4997215;28;20212;-72
2022/09/02 01:24:42;;;;;;;2.50;2.30;;;22.10;56.20;;;;;;4996889;28;20207;-72
2022/09/02 01:27:08;;;;;;;2.40;2.20;;;22.10;56.20;;;;;;5013239;28;20204;-72
2022/09/02 01:29:36;;;;;;;2.40;2.20;;;22.00;56.20;;;;;;4996788;28;20236;-72
2022/09/02 01:32:03;;;;;;;3.60;2.45;;;22.10;56.20;;;;;;4996856;28;20223;-72
2022/09/02 01:34:31;;;;;;;2.30;2.17;;;22.00;56.20;;;;;;4997900;28;20210;-72
2022/09/02 01:36:59;;;;;;;1.98;1.88;;;22.00;56.20;;;;;;4981680;28;20200;-72
2022/09/02 01:39:27;;;;;;;2.35;2.15;;;22.00;56.20;;;;;;5014316;28;20303;-72
2022/09/02 01:41:55;;;;;;;2.40;2.20;;;22.00;56.20;;;;;;4997519;28;20598;-72
2022/09/02 01:44:23;;;;;;;2.63;2.20;;;22.00;56.20;;;;;;4996756;28;20196;-72
2022/09/02 01:46:50;;;;;;;2.47;2.28;;;22.00;56.20;;;;;;4996520;28;20201;-72
2022/09/02 01:49:17;;;;;;;2.20;2.10;;;22.00;56.20;;;;;;5014307;28;20218;-72
2022/09/02 01:51:45;;;;;;;2.05;1.95;;;21.90;56.10;;;;;;5013300;28;20240;-72
2022/09/02 01:54:12;;;;;;;2.35;2.15;;;22.00;56.20;;;;;;5013751;28;20209;-72
2022/09/02 01:56:40;;;;;;;2.10;2.00;;;21.90;56.10;;;;;;4996899;28;20196;-72
2022/09/02 01:59:10;;;;;;;2.42;2.22;;;21.90;56.10;;;;;;5013145;28;20320;-72
2022/09/02 02:01:37;;;;;;;2.40;2.20;;;21.90;56.10;;;;;;4996901;28;20220;-72
2022/09/02 02:04:04;;;;;;;2.35;2.22;;;21.90;56.10;;;;;;5013351;28;20192;-72
2022/09/02 02:06:32;;;;;;;2.33;2.13;;;21.90;56.10;;;;;;4997592;28;20205;-72
2022/09/02 02:08:59;;;;;;;2.25;2.05;;;21.90;56.10;;;;;;5013632;28;20205;-72
2022/09/02 02:11:27;;;;;;;2.22;2.13;;;21.90;56.10;;;;;;4997170;28;20249;-72
2022/09/02 02:14:00;;;;;;;2.30;2.10;;;21.90;56.10;;;;;;5018959;28;20292;-72
2022/09/02 02:16:27;;;;;;;2.40;2.20;;;21.90;56.10;;;;;;5002777;28;20192;-72
2022/09/02 02:18:54;;;;;;;2.08;1.98;;;21.90;56.70;;;;;;5017658;28;20311;-72
2022/09/02 02:21:21;;;;;;;2.13;2.03;;;21.90;56.10;;;;;;5000671;28;20217;-72
2022/09/02 02:23:48;;;;;;;3.15;2.38;;;21.80;56.00;;;;;;5017085;28;20197;-72
2022/09/02 02:26:15;;;;;;;2.13;2.03;;;21.90;56.10;;;;;;5017223;28;20208;-72
2022/09/02 02:28:43;;;;;;;2.38;2.17;;;21.90;56.10;;;;;;5017058;28;20212;-72
2022/09/02 02:31:11;;;;;;;1.92;1.83;;;21.90;56.10;;;;;;5017715;28;20208;-72
2022/09/02 02:33:38;;;;;;;3.30;2.05;;;21.80;56.00;;;;;;5017769;28;20204;-72
2022/09/02 02:36:07;;;;;;;2.00;1.80;;;21.80;56.00;;;;;;5001222;28;20196;-72
2022/09/02 02:38:35;;;;;;;2.30;2.10;;;21.80;56.00;;;;;;5017421;28;20220;-72
2022/09/02 02:41:03;;;;;;;2.55;2.30;;;21.80;56.00;;;;;;5017199;28;20225;-72
2022/09/02 02:43:30;;;;;;;2.25;2.05;;;21.80;56.00;;;;;;5001083;28;20603;-72
2022/09/02 02:45:57;;;;;;;2.33;2.17;;;21.80;56.00;;;;;;5018805;28;20211;-72
2022/09/02 02:48:26;;;;;;;2.15;2.00;;;21.80;56.00;;;;;;5001252;28;20201;-72
2022/09/02 02:50:53;;;;;;;2.00;1.90;;;21.80;56.00;;;;;;5020859;28;20232;-72
2022/09/02 02:53:21;;;;;;;2.00;1.90;;;21.80;56.00;;;;;;5025862;28;20207;-72
2022/09/02 02:55:48;;;;;;;2.30;2.10;;;21.70;55.90;;;;;;5007883;28;20205;-72
2022/09/02 02:58:15;;;;;;;2.45;2.03;;;21.70;55.90;;;;;;5025406;28;20268;-72
2022/09/02 03:00:44;;;;;;;2.20;2.05;;;21.70;55.90;;;;;;5008675;28;20224;-72
2022/09/02 03:03:11;;;;;;;2.10;1.90;;;21.70;55.90;;;;;;5008483;28;20189;-72
2022/09/02 03:05:40;;;;;;;2.40;2.20;;;21.70;56.00;;;;;;5025083;28;20201;-72
2022/09/02 03:08:09;;;;;;;2.42;2.17;;;21.70;56.00;;;;;;5025018;28;20201;-72
2022/09/02 03:10:37;;;;;;;2.00;1.90;;;21.70;56.00;;;;;;5024111;28;20217;-72
2022/09/02 03:13:06;;;;;;;3.00;2.13;;;21.70;55.90;;;;;;5008620;28;20197;-72
2022/09/02 03:15:33;;;;;;;3.20;2.03;;;21.70;55.90;;;;;;5023808;28;20204;-72
2022/09/02 03:18:01;;;;;;;2.58;2.15;;;21.70;55.50;;;;;;5024848;28;20227;-72
2022/09/02 03:20:28;;;;;;;3.22;2.10;;;21.70;55.30;;;;;;5024590;28;20236;-72
2022/09/02 03:23:00;;;;;;;2.90;2.03;;;21.70;55.20;;;;;;5008644;28;20260;-72
2022/09/02 03:25:29;;;;;;;2.08;1.90;;;21.70;55.10;;;;;;5020222;28;20283;-72
2022/09/02 03:27:57;;;;;;;2.03;1.92;;;21.70;55.10;;;;;;5023301;28;20268;-72
2022/09/02 03:30:26;;;;;;;2.40;2.17;;;21.80;55.00;;;;;;5024435;28;20566;-72
2022/09/02 03:32:53;;;;;;;3.33;2.10;;;21.80;54.90;;;;;;5007781;28;20200;-72
2022/09/02 03:35:21;;;;;;;2.10;2.00;;;21.90;54.70;;;;;;5009186;28;20200;-72
2022/09/02 03:37:49;;;;;;;2.47;2.00;;;21.90;54.40;;;;;;5007911;28;20200;-72
2022/09/02 03:40:19;;;;;;;3.45;2.20;;;22.00;54.40;;;;;;5006839;28;20217;-72
2022/09/02 03:42:47;;;;;;;2.50;2.30;;;22.00;54.40;;;;;;5020546;28;20200;-72
2022/09/02 03:45:14;;;;;;;2.45;1.95;;;22.00;54.30;;;;;;5018923;28;20291;-72
2022/09/02 03:47:49;;;;;;;2.83;2.10;;;22.00;54.30;;;;;;5002792;28;20196;-72
2022/09/02 03:50:18;;;;;;;2.03;1.90;;;22.00;54.10;;;;;;4999193;28;20189;-72
2022/09/02 03:52:48;;;;;;;2.20;2.00;;;22.00;54.10;;;;;;4998967;28;20203;-72
2022/09/02 03:55:16;;;;;;;2.53;1.70;;;22.10;54.10;;;;;;5015417;28;20248;-73
2022/09/02 03:57:44;;;;;;;1.77;1.67;;;22.00;54.00;;;;;;4998739;28;20201;-73
2022/09/02 04:00:14;;;;;;;1.98;1.70;;;22.00;54.00;;;;;;4998343;28;20267;-73
2022/09/02 04:02:41;;;;;;;2.30;2.00;;;22.00;54.00;;;;;;5016619;28;20207;-73
2022/09/02 04:05:11;;;;;;;2.00;1.90;;;22.00;54.00;;;;;;5015273;28;20201;-73
2022/09/02 04:07:40;;;;;;;2.20;2.00;;;22.00;54.00;;;;;;5015242;28;20247;-73
2022/09/02 04:10:08;;;;;;;2.75;1.98;;;22.00;54.60;;;;;;5015014;28;20674;-73
2022/09/02 04:12:37;;;;;;;2.00;1.85;;;22.00;53.90;;;;;;5014959;28;20686;-73
2022/09/02 04:15:09;;;;;;;2.10;2.00;;;22.00;54.00;;;;;;4998365;28;20199;-73
2022/09/02 04:17:36;;;;;;;2.22;2.03;;;21.90;53.90;;;;;;4998258;28;20190;-73
2022/09/02 04:20:04;;;;;;;3.00;1.98;;;21.90;53.90;;;;;;4998381;28;20307;-73
2022/09/02 04:22:34;;;;;;;1.98;1.83;;;21.90;54.00;;;;;;5016010;28;20220;-73
2022/09/02 04:25:01;;;;;;;2.17;1.98;;;21.90;53.90;;;;;;5014699;28;20201;-73
2022/09/02 04:27:28;;;;;;;2.45;1.80;;;22.00;54.00;;;;;;4998112;28;20672;-73
2022/09/02 04:29:56;;;;;;;1.90;1.80;;;21.90;53.90;;;;;;4998190;28;20200;-73
2022/09/02 04:32:25;;;;;;;1.90;1.80;;;21.90;53.90;;;;;;4998396;28;20220;-73
2022/09/02 04:34:53;;;;;;;2.05;1.85;;;21.90;53.90;;;;;;4998179;28;20215;-73
2022/09/02 04:37:21;;;;;;;2.03;1.90;;;21.90;53.80;;;;;;5014154;28;20193;-73
2022/09/02 04:39:48;;;;;;;1.90;1.80;;;21.90;53.90;;;;;;5014189;28;20196;-73
2022/09/02 04:42:16;;;;;;;2.00;1.80;;;21.90;53.90;;;;;;4982252;28;20220;-73
2022/09/02 04:44:45;;;;;;;1.80;1.70;;;21.90;54.00;;;;;;4998828;28;20208;-73
2022/09/02 04:47:12;;;;;;;1.70;1.60;;;21.90;54.00;;;;;;4998734;28;20196;-73
2022/09/02 04:49:42;;;;;;;1.80;1.70;;;21.80;54.00;;;;;;4998853;28;20565;-73
2022/09/02 04:52:10;;;;;;;1.80;1.70;;;21.80;54.70;;;;;;5000002;28;20312;-73
2022/09/02 04:54:39;;;;;;;2.03;1.90;;;21.80;54.10;;;;;;5016568;28;20200;-73
2022/09/02 04:57:07;;;;;;;2.63;1.90;;;21.80;54.10;;;;;;4999090;28;20224;-73
2022/09/02 04:59:35;;;;;;;2.00;1.80;;;21.80;54.10;;;;;;4998937;28;20197;-73
2022/09/02 05:02:09;;;;;;;1.88;1.77;;;21.80;54.10;;;;;;4998009;28;20307;-73
2022/09/02 05:04:37;;;;;;;2.55;1.80;;;21.80;54.20;;;;;;5013940;28;20236;-73
2022/09/02 05:07:08;;;;;;;3.70;1.70;;;21.80;54.10;;;;;;4998215;28;20193;-73
2022/09/02 05:09:42;;;;;;;2.10;1.88;;;21.80;54.20;;;;;;4997466;28;20243;-73
2022/09/02 05:12:10;;;;;;;1.95;1.70;;;21.80;54.10;;;;;;5015099;28;20219;-73
2022/09/02 05:14:43;;;;;;;2.10;1.67;;;21.80;54.10;;;;;;4997859;28;20180;-73
2022/09/02 05:17:11;;;;;;;2.67;1.83;;;21.80;54.10;;;;;;5014330;28;20694;-73
2022/09/02 05:19:41;;;;;;;1.95;1.77;;;21.80;54.10;;;;;;5015247;28;20647;-73
2022/09/02 05:22:10;;;;;;;1.80;1.70;;;21.80;54.10;;;;;;4999521;28;20227;-73
2022/09/02 05:24:42;;;;;;;2.17;1.98;;;21.80;54.10;;;;;;4998717;28;20256;-73
2022/09/02 05:27:12;;;;;;;1.90;1.77;;;21.80;54.10;;;;;;4997945;28;20196;-73
2022/09/02 05:29:39;;;;;;;1.90;1.80;;;21.80;54.10;;;;;;5014541;28;20193;-73
2022/09/02 05:32:07;;;;;;;2.03;1.85;;;21.80;54.20;;;;;;5013811;28;20219;-73
2022/09/02 05:34:37;;;;;;;2.67;1.90;;;21.80;54.10;;;;;;4997427;28;20197;-73
2022/09/02 05:37:05;;;;;;;2.60;1.63;;;21.80;54.00;;;;;;4997488;28;20709;-73
2022/09/02 05:39:35;;;;;;;3.00;1.90;;;21.90;54.10;;;;;;4997839;28;20641;-73
2022/09/02 05:42:03;;;;;;;2.00;1.90;;;22.00;53.90;;;;;;5013128;28;20224;-73
2022/09/02 05:44:32;;;;;;;2.05;1.80;;;22.00;53.50;;;;;;5013558;28;20196;-73
2022/09/02 05:47:00;;;;;;;1.90;1.77;;;22.20;53.30;;;;;;4996767;28;20192;-73
2022/09/02 05:49:28;;;;;;;2.58;2.10;;;22.30;52.90;;;;;;5000331;28;20220;-73
2022/09/02 05:52:00;;;;;;;1.90;1.73;;;22.40;52.50;;;;;;5001885;28;20215;-73
2022/09/02 05:54:33;;;;;;;1.98;1.80;;;22.60;52.30;;;;;;5017452;28;20189;-73
2022/09/02 05:57:07;;;;;;;2.08;1.90;;;22.60;52.00;;;;;;5002412;28;20243;-73
2022/09/02 05:59:38;;;;;;;2.20;1.80;;;22.70;51.90;;;;;;5003692;28;20199;-73
2022/09/02 06:02:06;;;;;;;2.28;2.08;;;22.70;51.80;;;;;;5001211;28;20224;-73
2022/09/02 06:04:37;;;;;;;2.22;2.03;;;22.80;51.50;;;;;;5000604;28;20292;-73
2022/09/02 06:07:04;;;;;;;2.50;1.70;;;22.90;51.10;;;;;;5000570;28;20193;-73
2022/09/02 06:09:31;;;;;;;4.10;2.00;;;23.10;50.80;;;;;;5016321;28;20219;-73
2022/09/02 06:11:59;;;;;;;1.98;1.73;;;23.30;50.40;;;;;;5016206;28;20629;-73
2022/09/02 06:14:31;;;;;;;1.95;1.80;;;23.40;49.90;;;;;;5016980;28;20204;-73
2022/09/02 06:17:00;;;;;;;2.65;2.05;;;23.60;49.50;;;;;;5000213;28;20549;-73
2022/09/02 06:19:38;;;;;;;1.77;1.67;;;23.80;49.20;;;;;;5016102;28;20620;-73
2022/09/02 06:22:07;;;;;;;2.63;1.80;;;23.80;49.20;;;;;;5016029;28;20308;-73
2022/09/02 06:24:36;;;;;;;2.67;1.83;;;23.80;48.90;;;;;;5017118;28;20228;-73
2022/09/02 06:27:09;;;;;;;2.35;1.75;;;23.90;48.90;;;;;;5016873;28;20204;-73
2022/09/02 06:29:41;;;;;;;2.28;1.70;;;23.90;48.80;;;;;;5016386;28;20197;-73
2022/09/02 06:32:10;;;;;;;2.05;1.90;;;24.10;48.60;;;;;;5016009;28;20216;-73
2022/09/02 06:34:38;;;;;;;2.05;1.80;;;24.30;48.30;;;;;;5016082;28;20246;-73
2022/09/02 06:37:05;;;;;;;1.73;1.63;;;24.40;47.90;;;;;;4999596;28;20227;-73
2022/09/02 06:39:37;;;;;;;1.98;1.88;;;24.50;47.60;;;;;;5015931;28;20225;-73
2022/09/02 06:42:05;;;;;;;2.10;1.90;;;24.70;47.20;;;;;;4999372;28;20217;-73
2022/09/02 06:44:44;;;;;;;1.75;1.65;;;24.90;47.00;;;;;;4984857;28;20275;-73
2022/09/02 06:47:11;;;;;;;2.08;1.83;;;25.00;46.70;;;;;;5015841;28;20204;-73
2022/09/02 06:49:38;;;;;;;1.80;1.70;;;25.10;46.40;;;;;;5016186;28;20197;-73
2022/09/02 06:52:06;;;;;;;1.80;1.70;;;25.20;46.20;;;;;;5015538;28;20590;-73
2022/09/02 06:54:36;;;;;;;1.95;1.85;;;25.30;46.00;;;;;;4983884;28;20551;-73
2022/09/02 06:57:12;;;;;;;2.65;1.67;;;25.40;45.80;;;;;;5016025;28;20231;-73
2022/09/02 06:59:38;;;;;;;2.10;1.83;;;25.50;45.50;;;;;;5014545;28;20667;-73
2022/09/02 07:02:08;;;;;;;1.65;1.55;;;25.60;45.50;;;;;;4999019;28;20307;-73
2022/09/02 07:07:22;;;;;;;1.98;1.67;;;25.70;45.10;;;;;;5015343;28;20275;-73
2022/09/02 07:09:52;;;;;;;3.15;2.00;;;25.90;45.00;;;;;;5016244;28;20227;-73
2022/09/02 07:12:19;;;;;;;1.83;1.73;;;26.00;44.90;;;;;;5015136;28;20304;-73
2022/09/02 07:15:09;;;;;;;1.98;1.88;;;26.00;44.70;;;;;;5016144;28;20232;-73
2022/09/02 07:17:41;;;;;;;1.80;1.70;;;26.10;44.60;;;;;;4984598;28;20227;-73
2022/09/02 07:20:12;;;;;;;1.83;1.73;;;26.20;44.50;;;;;;4998674;28;20185;-73
2022/09/02 07:22:48;;;;;;;1.77;1.67;;;26.20;44.60;;;;;;4998703;28;20212;-73
2022/09/02 07:25:18;;;;;;;2.17;1.73;;;26.20;44.50;;;;;;4999558;28;20554;-73
2022/09/02 07:27:50;;;;;;;1.90;1.70;;;26.30;44.20;;;;;;5014846;28;20200;-73
2022/09/02 07:30:17;;;;;;;2.22;1.90;;;26.30;44.10;;;;;;5015086;28;20279;-73
2022/09/02 07:32:48;;;;;;;2.05;1.90;;;26.50;44.00;;;;;;5015217;28;20200;-73
2022/09/02 07:35:18;;;;;;;3.67;1.92;;;26.50;43.90;;;;;;5015650;28;20250;-73
2022/09/02 07:37:45;;;;;;;2.78;1.95;;;26.60;43.70;;;;;;5014995;28;20196;-73
2022/09/02 07:40:14;;;;;;;2.05;1.85;;;26.60;43.60;;;;;;4998274;28;20192;-73
2022/09/02 07:42:42;;;;;;;1.83;1.73;;;26.70;43.50;;;;;;4999068;28;20617;-73
2022/09/02 07:45:09;;;;;;;3.35;1.80;;;26.70;43.40;;;;;;5015078;28;20571;-73
2022/09/02 07:47:39;;;;;;;2.25;1.80;;;26.80;43.20;;;;;;5014144;28;20287;-73
2022/09/02 07:50:08;;;;;;;1.85;1.67;;;26.80;43.10;;;;;;4998023;28;20192;-73
2022/09/02 07:52:36;;;;;;;2.42;1.90;;;26.90;43.10;;;;;;5015697;28;20212;-73
2022/09/02 07:55:03;;;;;;;1.63;1.52;;;27.00;43.00;;;;;;4998593;28;20208;-73
2022/09/02 07:57:31;;;;;;;2.20;2.00;;;27.00;42.80;;;;;;4998636;28;20588;-73
2022/09/02 07:59:58;;;;;;;2.33;1.77;;;27.00;43.40;;;;;;5015047;28;20283;-73
2022/09/02 08:02:25;;;;;;;2.58;1.85;;;27.10;42.60;;;;;;5014920;28;20216;-73
2022/09/02 08:04:53;;;;;;;2.08;1.88;;;27.10;42.60;;;;;;5014781;28;20683;-73
2022/09/02 08:07:23;;;;;;;1.92;1.77;;;27.20;42.40;;;;;;4998371;28;20231;-73
2022/09/02 08:09:50;;;;;;;1.60;1.50;;;27.20;42.30;;;;;;5014110;28;20290;-73
2022/09/02 08:12:17;;;;;;;1.83;1.60;;;27.30;42.10;;;;;;5014740;28;20212;-73
2022/09/02 08:14:44;;;;;;;1.88;1.60;;;27.30;42.10;;;;;;5013867;28;20624;-73
2022/09/02 08:17:11;;;;;;;1.85;1.52;;;27.40;42.10;;;;;;5014161;28;20569;-73
2022/09/02 08:19:38;;;;;;;2.10;1.60;;;27.40;42.10;;;;;;4997639;28;20574;-73
2022/09/02 08:22:06;;;;;;;1.85;1.75;;;27.40;42.10;;;;;;4997411;28;20216;-73
2022/09/02 08:24:34;;;;;;;1.92;1.83;;;27.50;42.00;;;;;;4997590;28;20196;-73
2022/09/02 08:27:01;;;;;;;1.92;1.80;;;27.50;41.90;;;;;;4997490;28;20716;-73
2022/09/02 08:29:28;;;;;;;1.70;1.60;;;27.50;41.70;;;;;;4997703;28;20558;-73
2022/09/02 08:31:55;;;;;;;2.22;1.70;;;27.60;41.80;;;;;;4997437;28;20211;-73
2022/09/02 08:34:22;;;;;;;1.77;1.67;;;27.60;41.80;;;;;;5013789;28;20575;-73
2022/09/02 08:36:49;;;;;;;1.70;1.60;;;27.70;41.70;;;;;;4997547;28;20196;-73
2022/09/02 08:39:16;;;;;;;1.70;1.60;;;27.70;41.50;;;;;;4997259;28;20206;-73
2022/09/02 08:41:47;;;;;;;1.70;1.60;;;27.70;41.50;;;;;;5014829;28;20216;-73
2022/09/02 08:44:18;;;;;;;1.80;1.50;;;27.70;41.50;;;;;;4997845;28;20192;-73
2022/09/02 08:46:45;;;;;;;1.92;1.70;;;27.80;41.50;;;;;;5013748;28;20196;-73
2022/09/02 08:49:15;;;;;;;1.50;1.40;;;27.80;41.30;;;;;;4997234;28;20208;-73
2022/09/02 08:51:47;;;;;;;1.70;1.60;;;27.80;41.30;;;;;;4997216;28;20219;-73
2022/09/02 08:54:17;;;;;;;1.70;1.60;;;27.90;41.40;;;;;;4997941;28;20711;-73
2022/09/02 08:56:47;;;;;;;1.67;1.58;;;27.90;41.40;;;;;;4997231;28;20196;-73
2022/09/02 08:59:14;;;;;;;2.00;1.63;;;28.00;42.10;;;;;;4997510;28;20223;-73
2022/09/02 09:01:45;;;;;;;1.70;1.60;;;28.00;41.30;;;;;;4996989;28;20706;-73
2022/09/02 09:04:30;;;;;;;1.70;1.60;;;28.00;41.30;;;;;;5014279;28;20196;-73
2022/09/02 09:07:15;;;;;;;2.03;1.50;;;28.00;41.20;;;;;;5013310;28;20192;-73
2022/09/02 09:09:53;;;;;;;1.75;1.55;;;28.10;41.20;;;;;;4997090;28;20196;-73
2022/09/02 09:12:26;;;;;;;1.50;1.40;;;28.00;41.10;;;;;;5013609;28;20227;-73
2022/09/02 09:14:55;;;;;;;1.60;1.50;;;28.10;41.20;;;;;;5013623;28;20216;-73
2022/09/02 09:17:26;;;;;;;1.58;1.48;;;28.10;41.20;;;;;;4998175;28;20710;-73
2022/09/02 09:19:53;;;;;;;1.63;1.50;;;28.10;41.10;;;;;;4997456;28;20200;-73
2022/09/02 09:22:21;;;;;;;1.58;1.48;;;28.10;41.20;;;;;;4996583;28;20752;-73
2022/09/02 09:24:49;;;;;;;1.63;1.52;;;28.10;41.20;;;;;;5012517;28;20200;-73
2022/09/02 09:27:17;;;;;;;1.52;1.40;;;28.10;41.20;;;;;;5014159;28;20192;-73
2022/09/02 09:29:45;;;;;;;1.85;1.67;;;28.10;41.30;;;;;;5014545;28;20279;-73
2022/09/02 09:32:20;;;;;;;1.70;1.60;;;28.00;41.20;;;;;;5012962;28;20652;-73
2022/09/02 09:35:01;;;;;;;1.58;1.48;;;28.10;41.20;;;;;;5013018;28;20195;-73
2022/09/02 09:37:36;;;;;;;1.60;1.50;;;28.00;41.40;;;;;;4996799;28;20192;-73
2022/09/02 09:40:22;;;;;;;1.60;1.50;;;28.00;41.40;;;;;;4980658;28;20203;-73
2022/09/02 09:42:54;;;;;;;1.70;1.60;;;28.00;41.40;;;;;;4996108;28;20698;-73
2022/09/02 09:45:27;;;;;;;1.40;1.30;;;28.00;41.40;;;;;;5013389;28;20196;-73
2022/09/02 09:48:17;;;;;;;1.50;1.40;;;28.00;42.10;;;;;;5014519;28;20185;-73
2022/09/02 09:50:44;;;;;;;1.70;1.60;;;28.00;41.50;;;;;;4996530;28;20224;-73
2022/09/02 09:53:16;;;;;;;1.60;1.50;;;28.00;41.60;;;;;;5013060;28;20196;-73
2022/09/02 09:55:51;;;;;;;1.50;1.40;;;27.90;41.50;;;;;;5012776;28;20203;-73
2022/09/02 09:58:18;;;;;;;1.60;1.40;;;28.00;41.60;;;;;;5012874;28;20199;-73
2022/09/02 10:00:46;;;;;;;1.42;1.33;;;27.90;41.50;;;;;;5012785;28;20223;-73
2022/09/02 10:03:21;;;;;;;1.60;1.50;;;27.90;41.70;;;;;;5012862;28;20216;-73
2022/09/02 10:05:47;;;;;;;1.50;1.40;;;27.90;41.60;;;;;;4998309;28;20265;-73
2022/09/02 10:08:20;;;;;;;1.40;1.30;;;27.90;41.70;;;;;;4997201;28;20204;-73
2022/09/02 10:10:56;;;;;;;1.40;1.30;;;27.80;41.80;;;;;;5014208;28;20220;-73
2022/09/02 10:13:24;;;;;;;1.65;1.55;;;27.80;41.80;;;;;;5014935;28;20195;-73
2022/09/02 10:16:07;;;;;;;1.60;1.50;;;27.80;42.00;;;;;;4997885;28;20675;-73
2022/09/02 10:18:35;;;;;;;1.33;1.23;;;27.80;41.90;;;;;;5014462;28;20199;-73
2022/09/02 10:21:05;;;;;;;2.58;1.50;;;27.80;42.00;;;;;;5012444;28;20224;-73
2022/09/02 10:23:42;;;;;;;1.50;1.40;;;27.70;42.00;;;;;;5013631;28;20267;-73
2022/09/02 10:26:15;;;;;;;1.63;1.42;;;27.70;42.10;;;;;;5013671;28;20176;-73
2022/09/02 10:29:07;;;;;;;1.58;1.48;;;27.70;42.20;;;;;;5012772;28;20663;-73
2022/09/02 10:31:40;;;;;;;1.35;1.25;;;27.70;42.30;;;;;;5002366;28;20220;-73
2022/09/02 10:34:12;;;;;;;1.60;1.50;;;27.70;42.30;;;;;;5012481;28;20200;-73
2022/09/02 10:36:44;;;;;;;1.40;1.30;;;27.60;42.20;;;;;;4983653;28;20665;-73
2022/09/02 10:39:18;;;;;;;1.33;1.23;;;27.70;42.30;;;;;;5000245;28;20246;-73
2022/09/02 10:41:45;;;;;;;1.30;1.25;;;27.60;42.20;;;;;;4999077;28;20272;-73
2022/09/02 10:44:31;;;;;;;1.40;1.30;;;27.60;42.20;;;;;;5016905;28;20211;-73
2022/09/02 10:47:02;;;;;;;1.50;1.40;;;27.60;42.40;;;;;;5015788;28;20204;-73
2022/09/02 10:49:54;;;;;;;1.33;1.25;;;27.50;42.50;;;;;;5015726;28;20631;-73
2022/09/02 10:52:32;;;;;;;1.50;1.40;;;27.50;42.60;;;;;;5015576;28;20706;-73
2022/09/02 10:55:03;;;;;;;1.52;1.42;;;27.40;42.50;;;;;;4983346;28;20195;-73
2022/09/02 10:57:31;;;;;;;1.45;1.35;;;27.50;42.60;;;;;;4999204;28;20580;-73
2022/09/02 10:59:59;;;;;;;1.40;1.30;;;27.40;42.70;;;;;;5015511;28;20200;-73
2022/09/02 11:02:30;;;;;;;1.50;1.40;;;27.40;42.90;;;;;;5015204;28;20307;-73
2022/09/02 11:04:59;;;;;;;1.35;1.25;;;27.40;43.00;;;;;;5015825;28;20204;-73
2022/09/02 11:07:28;;;;;;;1.58;1.38;;;27.30;42.90;;;;;;4999101;28;20207;-73
2022/09/02 11:09:57;;;;;;;1.30;1.20;;;27.30;43.10;;;;;;5015162;28;20271;-73
2022/09/02 11:12:28;;;;;;;1.48;1.38;;;27.20;43.30;;;;;;5015066;28;20713;-73
2022/09/02 11:15:02;;;;;;;1.63;1.20;;;27.20;44.00;;;;;;5015120;28;20188;-73
2022/09/02 11:17:35;;;;;;;1.40;1.30;;;27.20;43.60;;;;;;5015069;28;20303;-73
2022/09/02 11:20:06;;;;;;;1.48;1.38;;;27.10;43.60;;;;;;4999018;28;20188;-73
2022/09/02 11:22:37;;;;;;;1.60;1.50;;;27.10;43.60;;;;;;5015038;28;20654;-73
2022/09/02 11:25:07;;;;;;;1.40;1.30;;;27.00;43.70;;;;;;5016452;28;20619;-73
2022/09/02 11:27:37;;;;;;;1.40;1.30;;;27.00;43.90;;;;;;5014984;28;20196;-73
2022/09/02 11:30:05;;;;;;;1.30;1.20;;;27.00;44.10;;;;;;4999092;28;20311;-73
2022/09/02 11:32:37;;;;;;;1.40;1.30;;;26.90;44.10;;;;;;4998440;28;20303;-73
2022/09/02 11:35:07;;;;;;;1.17;1.17;;;26.90;44.20;;;;;;5015128;28;20271;-74
2022/09/02 11:37:38;;;;;;;1.10;1.10;;;26.80;44.30;;;;;;4998451;28;20212;-73
2022/09/02 11:40:06;;;;;;;1.20;1.20;;;26.80;44.30;;;;;;4998237;28;20208;-73
2022/09/02 11:42:44;;;;;;;1.48;1.38;;;26.80;44.50;;;;;;5014879;28;20228;-73
2022/09/02 11:45:27;;;;;;;1.45;1.30;;;26.80;44.70;;;;;;5014485;28;20200;-73
2022/09/02 11:48:09;;;;;;;1.33;1.23;;;26.70;44.70;;;;;;5015384;28;20177;-73
2022/09/02 11:50:52;;;;;;;1.27;1.20;;;26.70;44.80;;;;;;4998158;28;20224;-73
2022/09/02 11:53:21;;;;;;;1.40;1.30;;;26.70;44.90;;;;;;5014506;28;20188;-73
2022/09/02 11:55:49;;;;;;;1.40;1.30;;;26.70;45.00;;;;;;5015660;28;20192;-73
2022/09/02 11:58:30;;;;;;;1.35;1.30;;;26.70;45.00;;;;;;4998011;28;20250;-73
2022/09/02 12:01:05;;;;;;;1.40;1.30;;;26.60;45.10;;;;;;4998016;28;20247;-73
2022/09/02 12:03:33;;;;;;;1.27;1.17;;;26.60;45.30;;;;;;5014096;28;20215;-73
2022/09/02 12:06:06;;;;;;;1.10;1.10;;;26.60;45.30;;;;;;5014491;28;20200;-73
2022/09/02 12:08:59;;;;;;;1.38;1.27;;;26.60;45.40;;;;;;5014033;28;20204;-73
2022/09/02 12:11:44;;;;;;;1.30;1.20;;;26.60;45.40;;;;;;4997730;28;20243;-73
2022/09/02 12:14:12;;;;;;;1.00;1.00;;;26.60;45.60;;;;;;4997775;28;20239;-73
2022/09/02 12:16:42;;;;;;;1.55;1.20;;;26.60;45.60;;;;;;4998134;28;20295;-73
2022/09/02 12:19:39;;;;;;;1.80;1.40;;;26.60;45.60;;;;;;5015196;28;20200;-73
2022/09/02 12:22:26;;;;;;;1.40;1.30;;;26.60;45.70;;;;;;4998105;28;20254;-73
2022/09/02 12:24:53;;;;;;;1.33;1.23;;;26.60;45.80;;;;;;4997665;28;20195;-73
2022/09/02 12:27:25;;;;;;;1.00;1.00;;;26.50;45.70;;;;;;4997350;28;20655;-73
2022/09/02 12:29:53;;;;;;;1.40;1.30;;;26.50;45.90;;;;;;5013705;28;20200;-74
2022/09/02 12:32:57;;;;;;;1.42;1.30;;;26.50;45.90;;;;;;4997491;28;20219;-73
2022/09/02 12:35:33;;;;;;;1.58;1.48;;;26.50;46.00;;;;;;5014658;28;20258;-73
2022/09/02 12:38:22;;;;;;;1.40;1.30;;;26.50;46.10;;;;;;5014711;28;20188;-73
2022/09/02 12:40:54;;;;;;;1.38;1.27;;;26.40;46.10;;;;;;4997363;28;20595;-73
2022/09/02 12:43:25;;;;;;;1.50;1.40;;;26.50;46.20;;;;;;4997820;28;20216;-73
2022/09/02 12:45:53;;;;;;;1.60;1.50;;;26.40;46.10;;;;;;4998229;28;20227;-73
2022/09/02 12:48:20;;;;;;;1.30;1.20;;;26.40;46.10;;;;;;4997444;28;20201;-73
2022/09/02 12:50:56;;;;;;;1.30;1.20;;;26.40;46.10;;;;;;4997337;28;20255;-73
2022/09/02 12:53:33;;;;;;;1.10;1.10;;;26.40;46.20;;;;;;5015063;28;20238;-73
2022/09/02 12:56:02;;;;;;;1.20;1.10;;;26.50;46.90;;;;;;4998098;28;20294;-73
2022/09/02 12:58:34;;;;;;;1.10;1.10;;;26.40;46.30;;;;;;4998853;28;20218;-73
2022/09/02 13:01:12;;;;;;;0.98;0.98;;;26.40;46.30;;;;;;5014265;28;20220;-73
2022/09/02 13:03:52;;;;;;;1.20;1.20;;;26.40;46.30;;;;;;5015078;28;20222;-74
2022/09/02 13:06:25;;;;;;;1.48;1.30;;;26.40;46.40;;;;;;4997980;28;20214;-73